Time;durP1;ratioP1;P1;durP2;ratioP2;P2;SDS_P1;SDS_P2;PMS_P1;PMS_P2;Temp;Humidity;BMP_temperature;BMP_pressure;BME280_temperature;BME280_humidity;BME280_pressure;Samples;Min_cycle;Max_cycle;Signal;HPM_P1;HPM_P2
2024/01/22 00:00:54;;;;;;;4.65;0.68;;;;;;;;;;6269141;22;20319;-43
2024/01/22 00:03:21;;;;;;;7.15;0.80;;;;;;;;;;6267222;22;20417;-42
2024/01/22 00:05:52;;;;;;;5.93;1.23;;;;;;;;;;6269721;22;20454;-43
2024/01/22 00:08:20;;;;;;;6.80;1.25;;;;;;;;;;6267225;22;20023;-43
2024/01/22 00:10:48;;;;;;;4.10;0.60;;;;;;;;;;6265293;22;20090;-43
2024/01/22 00:13:16;;;;;;;5.20;0.47;;;;;;;;;;6269036;22;20019;-43
2024/01/22 00:15:44;;;;;;;4.75;1.10;;;;;;;;;;6257296;22;20011;-43
2024/01/22 00:18:11;;;;;;;2.83;0.43;;;;;;;;;;6272846;22;20015;-43
2024/01/22 00:20:41;;;;;;;3.35;0.50;;;;;;;;;;6270226;22;20080;-43
2024/01/22 00:23:10;;;;;;;3.90;0.90;;;;;;;;;;6271257;22;20042;-44
2024/01/22 00:25:37;;;;;;;3.30;0.43;;;;;;;;;;6263439;22;20359;-42
2024/01/22 00:28:06;;;;;;;4.70;0.30;;;;;;;;;;6210338;22;20019;-43
2024/01/22 00:30:33;;;;;;;5.05;0.80;;;;;;;;;;6273010;22;20015;-43
2024/01/22 00:33:01;;;;;;;3.70;0.47;;;;;;;;;;6234122;22;20054;-43
2024/01/22 00:35:29;;;;;;;4.37;0.63;;;;;;;;;;6268117;22;20015;-43
2024/01/22 00:37:57;;;;;;;5.18;0.70;;;;;;;;;;6267773;22;20089;-43
2024/01/22 00:40:27;;;;;;;3.90;0.40;;;;;;;;;;6268328;22;20023;-43
2024/01/22 00:42:54;;;;;;;2.47;0.30;;;;;;;;;;6261537;22;20012;-43
2024/01/22 00:45:22;;;;;;;5.88;0.60;;;;;;;;;;6264139;22;20026;-43
2024/01/22 00:47:50;;;;;;;3.50;0.30;;;;;;;;;;6281032;22;20073;-43
2024/01/22 00:50:18;;;;;;;6.82;0.60;;;;;;;;;;6253659;22;20023;-44
2024/01/22 00:52:46;;;;;;;4.75;0.40;;;;;;;;;;6277101;22;20446;-43
2024/01/22 00:55:13;;;;;;;6.18;0.52;;;;;;;;;;6267057;22;20019;-43
2024/01/22 00:57:42;;;;;;;9.93;0.95;;;;;;;;;;6276715;22;20030;-45
2024/01/22 01:00:15;;;;;;;4.13;0.50;;;;;;;;;;6271464;22;20375;-43
2024/01/22 01:02:43;;;;;;;7.95;0.93;;;;;;;;;;6261698;22;20019;-43
2024/01/22 01:05:11;;;;;;;6.28;0.55;;;;;;;;;;6232917;22;20445;-43
2024/01/22 01:07:39;;;;;;;6.50;0.82;;;;;;;;;;6269951;22;20382;-43
2024/01/22 01:10:08;;;;;;;9.45;1.42;;;;;;;;;;6271613;22;20031;-44
2024/01/22 01:12:35;;;;;;;10.37;1.43;;;;;;;;;;6267267;22;20015;-43
2024/01/22 01:15:05;;;;;;;7.30;0.70;;;;;;;;;;6264960;22;20019;-44
2024/01/22 01:17:33;;;;;;;5.50;0.60;;;;;;;;;;6267626;22;20072;-44
2024/01/22 01:20:00;;;;;;;6.57;0.93;;;;;;;;;;6271909;22;20087;-44
2024/01/22 01:22:28;;;;;;;6.15;1.15;;;;;;;;;;6254955;22;20046;-44
2024/01/22 01:24:56;;;;;;;4.70;0.50;;;;;;;;;;6273181;22;20035;-44
2024/01/22 01:27:23;;;;;;;10.55;1.08;;;;;;;;;;6252928;22;20029;-45
2024/01/22 01:29:52;;;;;;;8.68;1.20;;;;;;;;;;6234235;22;20026;-45
2024/01/22 01:32:22;;;;;;;12.88;1.63;;;;;;;;;;6272216;22;20180;-45
2024/01/22 01:34:50;;;;;;;8.85;1.15;;;;;;;;;;6255468;22;20269;-45
2024/01/22 01:37:17;;;;;;;10.90;1.30;;;;;;;;;;6270805;22;20015;-44
2024/01/22 01:39:45;;;;;;;12.02;1.45;;;;;;;;;;6260156;22;20026;-43
2024/01/22 01:42:13;;;;;;;12.13;1.05;;;;;;;;;;6277124;22;20019;-43
2024/01/22 01:44:51;;;;;;;20.05;2.25;;;;;;;;;;6262181;22;20397;-43
2024/01/22 01:47:19;;;;;;;18.35;2.22;;;;;;;;;;6272935;22;20099;-44
2024/01/22 01:49:48;;;;;;;19.23;2.03;;;;;;;;;;6264955;22;20022;-45
2024/01/22 01:52:16;;;;;;;15.98;2.28;;;;;;;;;;6271631;22;20452;-43
2024/01/22 01:54:45;;;;;;;12.90;1.85;;;;;;;;;;6255567;22;20629;-45
2024/01/22 01:57:13;;;;;;;18.70;1.98;;;;;;;;;;6268236;22;20328;-44
2024/01/22 01:59:42;;;;;;;17.77;2.33;;;;;;;;;;6263370;22;20015;-44
2024/01/22 02:02:10;;;;;;;20.97;2.83;;;;;;;;;;6249777;22;20043;-43
2024/01/22 02:04:38;;;;;;;21.40;2.88;;;;;;;;;;6261485;22;20077;-43
2024/01/22 02:07:07;;;;;;;24.10;2.75;;;;;;;;;;6274453;22;20026;-44
2024/01/22 02:09:48;;;;;;;16.70;2.72;;;;;;;;;;6261330;22;20068;-43
2024/01/22 02:12:17;;;;;;;19.13;2.88;;;;;;;;;;6269265;22;20052;-43
2024/01/22 02:14:46;;;;;;;21.10;2.90;;;;;;;;;;6269727;22;20015;-43
2024/01/22 02:17:15;;;;;;;26.52;3.53;;;;;;;;;;6262720;22;20019;-44
2024/01/22 02:20:00;;;;;;;18.55;2.95;;;;;;;;;;6273064;22;20144;-44
2024/01/22 02:22:29;;;;;;;28.60;3.55;;;;;;;;;;6258984;22;20050;-43
2024/01/22 02:24:59;;;;;;;16.80;2.70;;;;;;;;;;6272958;22;20086;-44
2024/01/22 02:27:27;;;;;;;18.47;2.47;;;;;;;;;;6258496;22;20018;-43
2024/01/22 02:29:55;;;;;;;16.55;2.75;;;;;;;;;;6233390;22;20429;-43
2024/01/22 02:32:22;;;;;;;23.08;2.75;;;;;;;;;;6271961;22;20606;-43
2024/01/22 02:34:50;;;;;;;28.08;3.10;;;;;;;;;;6270059;22;20049;-43
2024/01/22 02:37:18;;;;;;;24.48;3.53;;;;;;;;;;6274177;22;20015;-44
2024/01/22 02:39:45;;;;;;;18.20;2.63;;;;;;;;;;6266675;22;20023;-44
2024/01/22 02:42:14;;;;;;;24.98;4.70;;;;;;;;;;6277158;22;20019;-44
2024/01/22 02:44:43;;;;;;;21.75;2.97;;;;;;;;;;6272710;22;20015;-45
2024/01/22 02:47:15;;;;;;;21.00;2.90;;;;;;;;;;6261519;22;20045;-44
2024/01/22 02:49:43;;;;;;;15.02;2.28;;;;;;;;;;6262681;22;20019;-44
2024/01/22 02:52:11;;;;;;;12.67;2.27;;;;;;;;;;6282996;22;20038;-44
2024/01/22 02:54:38;;;;;;;15.45;2.47;;;;;;;;;;6262754;22;20007;-45
2024/01/22 02:57:06;;;;;;;16.27;1.60;;;;;;;;;;6255860;22;20023;-44
2024/01/22 02:59:36;;;;;;;16.60;2.65;;;;;;;;;;6262902;22;20323;-44
2024/01/22 03:02:05;;;;;;;24.52;2.90;;;;;;;;;;6285864;22;20037;-45
2024/01/22 03:04:50;;;;;;;16.50;2.07;;;;;;;;;;6254051;22;20440;-45
2024/01/22 03:07:18;;;;;;;19.30;2.45;;;;;;;;;;6288872;22;20080;-45
2024/01/22 03:09:45;;;;;;;26.52;3.47;;;;;;;;;;6275297;22;20059;-45
2024/01/22 03:12:13;;;;;;;22.75;3.40;;;;;;;;;;6260179;22;20082;-44
2024/01/22 03:14:42;;;;;;;25.33;4.03;;;;;;;;;;6278542;22;20076;-44
2024/01/22 03:17:12;;;;;;;27.00;3.20;;;;;;;;;;6247608;22;20419;-44
2024/01/22 03:19:40;;;;;;;14.30;2.50;;;;;;;;;;6235791;22;20026;-45
2024/01/22 03:22:08;;;;;;;23.00;2.53;;;;;;;;;;6253902;22;20015;-45
2024/01/22 03:24:37;;;;;;;23.10;3.63;;;;;;;;;;6240653;22;20030;-45
2024/01/22 03:27:04;;;;;;;29.65;3.67;;;;;;;;;;6236539;22;20016;-46
2024/01/22 03:29:32;;;;;;;28.67;3.40;;;;;;;;;;6195505;22;20030;-45
2024/01/22 03:32:02;;;;;;;31.48;3.10;;;;;;;;;;6243301;22;20016;-44
2024/01/22 03:34:29;;;;;;;34.42;4.07;;;;;;;;;;6246076;22;20020;-44
2024/01/22 03:36:57;;;;;;;17.95;3.47;;;;;;;;;;6244602;22;20042;-44
2024/01/22 03:39:25;;;;;;;15.65;2.92;;;;;;;;;;6237413;22;20022;-45
2024/01/22 03:41:53;;;;;;;19.80;3.17;;;;;;;;;;6227866;22;20312;-45
2024/01/22 03:44:21;;;;;;;26.02;3.97;;;;;;;;;;6245249;22;20015;-45
2024/01/22 03:46:50;;;;;;;23.23;3.30;;;;;;;;;;6229519;22;20018;-45
2024/01/22 03:49:19;;;;;;;26.35;3.20;;;;;;;;;;6234672;22;20517;-44
2024/01/22 03:51:47;;;;;;;22.33;3.13;;;;;;;;;;6235409;22;20043;-44
2024/01/22 03:54:15;;;;;;;29.83;3.93;;;;;;;;;;6244496;22;20019;-46
2024/01/22 03:56:43;;;;;;;28.48;4.18;;;;;;;;;;6234706;22;20349;-46
2024/01/22 03:59:13;;;;;;;34.55;3.97;;;;;;;;;;6239359;22;20035;-44
2024/01/22 04:01:41;;;;;;;20.33;3.28;;;;;;;;;;6218597;22;20016;-45
2024/01/22 04:04:09;;;;;;;29.25;3.85;;;;;;;;;;6237754;22;20770;-45
2024/01/22 04:06:38;;;;;;;27.30;4.53;;;;;;;;;;6244433;22;20065;-46
2024/01/22 04:09:06;;;;;;;20.52;3.00;;;;;;;;;;6223601;22;20085;-44
2024/01/22 04:11:34;;;;;;;26.27;3.17;;;;;;;;;;6237094;22;20024;-44
2024/01/22 04:14:02;;;;;;;31.77;4.10;;;;;;;;;;6212986;22;20091;-45
2024/01/22 04:16:30;;;;;;;27.20;3.92;;;;;;;;;;6236916;22;20016;-44
2024/01/22 04:18:58;;;;;;;19.37;4.50;;;;;;;;;;6226901;22;20382;-44
2024/01/22 04:21:26;;;;;;;29.13;4.32;;;;;;;;;;6245575;22;20019;-46
2024/01/22 04:23:55;;;;;;;37.60;3.08;;;;;;;;;;6240345;22;20024;-44
2024/01/22 04:26:23;;;;;;;19.05;2.85;;;;;;;;;;6238452;22;20015;-47
2024/01/22 04:28:51;;;;;;;37.88;4.55;;;;;;;;;;6177121;22;20028;-46
2024/01/22 04:31:20;;;;;;;28.13;3.63;;;;;;;;;;6228553;22;20065;-45
2024/01/22 04:33:47;;;;;;;24.23;2.70;;;;;;;;;;6244465;22;20333;-44
2024/01/22 04:36:16;;;;;;;21.35;3.05;;;;;;;;;;6220164;22;20417;-44
2024/01/22 04:38:44;;;;;;;27.27;3.65;;;;;;;;;;6233738;22;20016;-43
2024/01/22 04:41:13;;;;;;;18.02;3.70;;;;;;;;;;6238025;22;20103;-44
2024/01/22 04:43:41;;;;;;;33.17;4.40;;;;;;;;;;6213316;22;20158;-45
2024/01/22 04:46:09;;;;;;;24.98;3.30;;;;;;;;;;6242343;22;20016;-44
2024/01/22 04:48:37;;;;;;;34.45;3.95;;;;;;;;;;6225869;22;20039;-44
2024/01/22 04:51:05;;;;;;;30.25;3.70;;;;;;;;;;6232730;22;20615;-47
2024/01/22 04:53:33;;;;;;;32.22;3.95;;;;;;;;;;6241221;22;20081;-44
2024/01/22 04:56:02;;;;;;;27.13;4.10;;;;;;;;;;6218854;22;20043;-44
2024/01/22 04:58:31;;;;;;;22.90;2.58;;;;;;;;;;6243427;22;20347;-45
2024/01/22 05:00:59;;;;;;;23.77;3.72;;;;;;;;;;6247130;22;20080;-46
2024/01/22 05:03:29;;;;;;;34.15;4.07;;;;;;;;;;6238327;22;20389;-46
2024/01/22 05:05:57;;;;;;;30.55;4.43;;;;;;;;;;6254542;22;20026;-46
2024/01/22 05:08:24;;;;;;;29.00;3.77;;;;;;;;;;6249481;22;20065;-49
2024/01/22 05:10:52;;;;;;;19.67;2.38;;;;;;;;;;6236978;22;20095;-49
2024/01/22 05:13:20;;;;;;;28.50;3.78;;;;;;;;;;6251757;22;20016;-47
2024/01/22 05:15:49;;;;;;;27.38;3.60;;;;;;;;;;6242683;22;20343;-48
2024/01/22 05:18:17;;;;;;;37.08;4.60;;;;;;;;;;6249601;22;20023;-46
2024/01/22 05:20:49;;;;;;;27.70;3.40;;;;;;;;;;6226371;22;20023;-45
2024/01/22 05:23:17;;;;;;;24.48;3.22;;;;;;;;;;6255228;22;20283;-46
2024/01/22 05:25:45;;;;;;;30.38;3.45;;;;;;;;;;6237647;22;20440;-46
2024/01/22 05:28:13;;;;;;;21.95;2.97;;;;;;;;;;6203618;22;20534;-45
2024/01/22 05:30:41;;;;;;;35.72;4.20;;;;;;;;;;6236951;22;20024;-44
2024/01/22 05:33:10;;;;;;;23.73;3.30;;;;;;;;;;6219223;22;20019;-47
2024/01/22 05:35:38;;;;;;;23.48;3.67;;;;;;;;;;6241802;22;20012;-44
2024/01/22 05:38:06;;;;;;;27.33;2.95;;;;;;;;;;6248136;22;20020;-45
2024/01/22 05:40:34;;;;;;;24.98;3.38;;;;;;;;;;6247508;22;20022;-44
2024/01/22 05:43:02;;;;;;;27.08;3.00;;;;;;;;;;6223282;22;20047;-44
2024/01/22 05:45:29;;;;;;;28.17;3.83;;;;;;;;;;6238460;22;20019;-44
2024/01/22 05:47:57;;;;;;;32.88;3.38;;;;;;;;;;6205679;22;20451;-44
2024/01/22 05:50:26;;;;;;;20.17;2.28;;;;;;;;;;6219444;22;20492;-45
2024/01/22 05:52:54;;;;;;;21.08;2.78;;;;;;;;;;6245462;22;20020;-45
2024/01/22 05:55:22;;;;;;;24.05;4.60;;;;;;;;;;6223136;22;20026;-48
2024/01/22 05:57:50;;;;;;;34.47;3.60;;;;;;;;;;6240679;22;20194;-44
2024/01/22 06:00:21;;;;;;;32.42;3.78;;;;;;;;;;6231795;22;20022;-44
2024/01/22 06:02:49;;;;;;;27.45;5.07;;;;;;;;;;6235466;22;20091;-44
2024/01/22 06:05:18;;;;;;;31.58;3.22;;;;;;;;;;6229861;22;20065;-45
2024/01/22 06:07:47;;;;;;;23.10;3.28;;;;;;;;;;6242570;22;20015;-44
2024/01/22 06:10:15;;;;;;;26.63;3.70;;;;;;;;;;6243905;22;20023;-44
2024/01/22 06:12:44;;;;;;;31.15;3.63;;;;;;;;;;6215831;22;20069;-43
2024/01/22 06:15:12;;;;;;;29.00;2.83;;;;;;;;;;6243248;22;20019;-44
2024/01/22 06:17:39;;;;;;;35.17;3.38;;;;;;;;;;6233223;22;20020;-44
2024/01/22 06:20:09;;;;;;;23.13;3.22;;;;;;;;;;6230763;22;20085;-44
2024/01/22 06:22:37;;;;;;;34.53;3.97;;;;;;;;;;6228238;22;20362;-46
2024/01/22 06:25:07;;;;;;;24.20;3.10;;;;;;;;;;6239713;22;20455;-46
2024/01/22 06:27:34;;;;;;;19.45;3.25;;;;;;;;;;6209187;22;20015;-45
2024/01/22 06:30:03;;;;;;;25.50;3.38;;;;;;;;;;6203106;22;20446;-44
2024/01/22 06:32:31;;;;;;;20.52;2.50;;;;;;;;;;6226023;22;20019;-45
2024/01/22 06:34:59;;;;;;;20.30;2.83;;;;;;;;;;6179551;22;20799;-44
2024/01/22 06:37:27;;;;;;;20.17;2.60;;;;;;;;;;6177084;22;20751;-45
2024/01/22 06:39:58;;;;;;;21.73;2.17;;;;;;;;;;6244052;22;20020;-44
2024/01/22 06:42:29;;;;;;;23.75;3.38;;;;;;;;;;6219155;22;20012;-45
2024/01/22 06:45:05;;;;;;;26.10;2.70;;;;;;;;;;6218479;22;20018;-43
2024/01/22 06:47:34;;;;;;;22.40;2.77;;;;;;;;;;6236992;22;20087;-46
2024/01/22 06:50:03;;;;;;;19.27;2.47;;;;;;;;;;6245109;22;20038;-45
2024/01/22 06:52:31;;;;;;;23.58;3.15;;;;;;;;;;6237833;22;20020;-44
2024/01/22 06:55:00;;;;;;;29.63;3.65;;;;;;;;;;6249495;22;20023;-44
2024/01/22 06:57:29;;;;;;;26.42;4.03;;;;;;;;;;6226109;22;20015;-45
2024/01/22 06:59:58;;;;;;;17.30;2.03;;;;;;;;;;6231095;22;20023;-45
2024/01/22 07:02:26;;;;;;;27.23;2.63;;;;;;;;;;6234842;22;20355;-44
2024/01/22 07:04:55;;;;;;;26.88;2.65;;;;;;;;;;6225394;22;20094;-44
2024/01/22 07:07:23;;;;;;;24.77;2.60;;;;;;;;;;6238894;22;20012;-44
2024/01/22 07:09:51;;;;;;;27.88;4.30;;;;;;;;;;6241649;22;20089;-45
2024/01/22 07:12:19;;;;;;;22.90;3.57;;;;;;;;;;6218728;22;20043;-44
2024/01/22 07:14:49;;;;;;;24.33;2.78;;;;;;;;;;6242078;22;20030;-45
2024/01/22 07:17:19;;;;;;;20.30;2.97;;;;;;;;;;6230487;22;20039;-44
2024/01/22 07:19:47;;;;;;;21.88;3.05;;;;;;;;;;6227907;22;20012;-44
2024/01/22 07:22:14;;;;;;;30.20;3.30;;;;;;;;;;6230341;22;20019;-45
2024/01/22 07:24:42;;;;;;;23.17;3.73;;;;;;;;;;6199023;22;20257;-44
2024/01/22 07:27:12;;;;;;;21.90;2.80;;;;;;;;;;6193807;22;20016;-45
2024/01/22 07:29:39;;;;;;;23.88;4.38;;;;;;;;;;6205486;22;20024;-44
2024/01/22 07:32:10;;;;;;;20.15;2.92;;;;;;;;;;6206053;22;20024;-44
2024/01/22 07:34:37;;;;;;;21.35;3.25;;;;;;;;;;6231607;22;20038;-44
2024/01/22 07:37:06;;;;;;;19.40;2.87;;;;;;;;;;6239493;22;20016;-43
2024/01/22 07:39:34;;;;;;;27.20;4.05;;;;;;;;;;6230040;22;20186;-44
2024/01/22 07:42:02;;;;;;;21.02;3.05;;;;;;;;;;6243395;22;20022;-45
2024/01/22 07:44:30;;;;;;;22.85;2.83;;;;;;;;;;6241223;22;20535;-45
2024/01/22 07:46:58;;;;;;;18.67;2.67;;;;;;;;;;6242478;22;20455;-44
2024/01/22 07:49:27;;;;;;;23.70;2.63;;;;;;;;;;6244518;22;20610;-44
2024/01/22 07:51:55;;;;;;;14.90;1.80;;;;;;;;;;6207900;22;20028;-44
2024/01/22 07:54:24;;;;;;;15.25;1.70;;;;;;;;;;6235606;22;20023;-44
2024/01/22 07:56:52;;;;;;;16.42;1.30;;;;;;;;;;6243310;22;20030;-43
2024/01/22 07:59:19;;;;;;;22.58;1.98;;;;;;;;;;6240256;22;20106;-44
2024/01/22 08:01:48;;;;;;;17.30;2.27;;;;;;;;;;6237604;22;20038;-44
2024/01/22 08:04:15;;;;;;;16.23;1.65;;;;;;;;;;6238353;22;20020;-42
2024/01/22 08:06:46;;;;;;;14.25;1.73;;;;;;;;;;6231343;22;20851;-43
2024/01/22 08:09:18;;;;;;;18.65;2.38;;;;;;;;;;6235645;22;20023;-45
2024/01/22 08:11:47;;;;;;;17.73;1.77;;;;;;;;;;6237036;22;20019;-42
2024/01/22 08:14:15;;;;;;;17.90;2.30;;;;;;;;;;6240693;22;20404;-43
2024/01/22 08:16:45;;;;;;;16.55;2.50;;;;;;;;;;6238085;22;20030;-44
2024/01/22 08:19:13;;;;;;;16.17;1.60;;;;;;;;;;6241902;22;20012;-43
2024/01/22 08:21:41;;;;;;;16.65;1.83;;;;;;;;;;6232564;22;20012;-43
2024/01/22 08:24:13;;;;;;;17.63;2.20;;;;;;;;;;6245427;22;20015;-43
2024/01/22 08:26:42;;;;;;;16.93;1.97;;;;;;;;;;6221149;22;20012;-43
2024/01/22 08:29:10;;;;;;;17.35;1.40;;;;;;;;;;6201706;22;20020;-44
2024/01/22 08:31:39;;;;;;;21.77;2.63;;;;;;;;;;6237151;22;20425;-43
2024/01/22 08:34:07;;;;;;;10.73;1.50;;;;;;;;;;6223748;22;20023;-44
2024/01/22 08:36:35;;;;;;;14.90;1.75;;;;;;;;;;6226702;22;20385;-43
2024/01/22 08:39:04;;;;;;;15.90;1.67;;;;;;;;;;6231939;22;20051;-44
2024/01/22 08:41:33;;;;;;;20.45;1.55;;;;;;;;;;6224591;22;20019;-43
2024/01/22 08:44:03;;;;;;;16.35;2.05;;;;;;;;;;6233972;22;20035;-45
2024/01/22 08:46:30;;;;;;;20.48;2.20;;;;;;;;;;6232588;22;20110;-43
2024/01/22 08:48:58;;;;;;;14.73;1.70;;;;;;;;;;6226666;22;20015;-42
2024/01/22 08:51:26;;;;;;;18.40;2.77;;;;;;;;;;6227242;22;20333;-43
2024/01/22 08:53:54;;;;;;;19.90;2.00;;;;;;;;;;6232771;22;20015;-43
2024/01/22 08:56:22;;;;;;;14.35;1.30;;;;;;;;;;6223070;22;20069;-42
2024/01/22 08:58:51;;;;;;;15.75;1.73;;;;;;;;;;6234514;22;20411;-42
2024/01/22 09:01:20;;;;;;;22.42;1.83;;;;;;;;;;6220375;22;20038;-43
2024/01/22 09:03:48;;;;;;;13.13;1.37;;;;;;;;;;6221201;22;20016;-43
2024/01/22 09:06:16;;;;;;;14.27;1.58;;;;;;;;;;6202673;22;20042;-44
2024/01/22 09:08:44;;;;;;;16.33;1.40;;;;;;;;;;6243500;22;20536;-43
2024/01/22 09:11:11;;;;;;;18.38;1.35;;;;;;;;;;6220572;22;20019;-43
2024/01/22 09:13:39;;;;;;;19.15;1.63;;;;;;;;;;6244762;22;20443;-42
2024/01/22 09:16:14;;;;;;;19.30;2.80;;;;;;;;;;6236238;22;20431;-43
2024/01/22 09:18:44;;;;;;;20.02;2.15;;;;;;;;;;6246087;22;20035;-42
2024/01/22 09:21:14;;;;;;;15.23;2.00;;;;;;;;;;6234369;22;20016;-45
2024/01/22 09:23:43;;;;;;;18.75;2.08;;;;;;;;;;6241278;22;20016;-42
2024/01/22 09:26:10;;;;;;;13.18;1.52;;;;;;;;;;6195051;22;20087;-45
2024/01/22 09:28:38;;;;;;;10.37;1.17;;;;;;;;;;6158369;22;20069;-44
2024/01/22 09:31:06;;;;;;;14.82;2.35;;;;;;;;;;6202003;22;20043;-43
2024/01/22 09:33:35;;;;;;;14.23;1.45;;;;;;;;;;6178555;22;20529;-44
2024/01/22 09:36:04;;;;;;;13.40;1.35;;;;;;;;;;6219642;22;20020;-44
2024/01/22 09:38:32;;;;;;;12.60;1.27;;;;;;;;;;6211985;22;20090;-43
2024/01/22 09:41:00;;;;;;;20.40;1.33;;;;;;;;;;6211921;22;20019;-42
2024/01/22 09:43:27;;;;;;;14.20;1.35;;;;;;;;;;6194521;22;20020;-45
2024/01/22 09:45:54;;;;;;;15.95;1.52;;;;;;;;;;6208303;22;20023;-44
2024/01/22 09:48:23;;;;;;;13.10;1.25;;;;;;;;;;6222361;22;20108;-42
2024/01/22 09:50:52;;;;;;;13.98;1.30;;;;;;;;;;6200331;22;20061;-42
2024/01/22 09:53:28;;;;;;;13.97;1.87;;;;;;;;;;6198437;22;20029;-43
2024/01/22 09:55:57;;;;;;;15.10;1.52;;;;;;;;;;6208465;22;20016;-43
2024/01/22 09:58:27;;;;;;;13.07;1.13;;;;;;;;;;6211567;22;20019;-43
2024/01/22 10:00:55;;;;;;;15.23;1.38;;;;;;;;;;6210844;22;20043;-42
2024/01/22 10:03:23;;;;;;;15.35;1.77;;;;;;;;;;6203687;22;20027;-42
2024/01/22 10:05:54;;;;;;;19.73;1.97;;;;;;;;;;6223715;22;20012;-43
2024/01/22 10:08:22;;;;;;;16.05;2.47;;;;;;;;;;6212295;22;20030;-43
2024/01/22 10:10:53;;;;;;;20.92;2.60;;;;;;;;;;6235343;22;20026;-44
2024/01/22 10:13:22;;;;;;;15.98;1.98;;;;;;;;;;6220713;22;20019;-43
2024/01/22 10:15:49;;;;;;;21.27;1.95;;;;;;;;;;6227558;22;20405;-44
2024/01/22 10:18:18;;;;;;;13.50;1.77;;;;;;;;;;6234456;22;20024;-42
2024/01/22 10:20:47;;;;;;;13.27;1.70;;;;;;;;;;6217486;22;20259;-43
2024/01/22 10:23:17;;;;;;;15.30;1.65;;;;;;;;;;6233549;22;20050;-44
2024/01/22 10:25:45;;;;;;;12.98;1.65;;;;;;;;;;6215636;22;20016;-43
2024/01/22 10:28:16;;;;;;;16.33;1.52;;;;;;;;;;6186061;22;20455;-46
2024/01/22 10:30:49;;;;;;;18.77;2.33;;;;;;;;;;6183891;22;20026;-44
2024/01/22 10:33:20;;;;;;;12.65;1.40;;;;;;;;;;6221295;22;20030;-43
2024/01/22 10:35:52;;;;;;;14.98;1.30;;;;;;;;;;6221576;22;20055;-45
2024/01/22 10:38:23;;;;;;;18.60;1.98;;;;;;;;;;6220963;22;20023;-43
2024/01/22 10:40:51;;;;;;;11.15;1.55;;;;;;;;;;6213675;22;20518;-45
2024/01/22 10:43:24;;;;;;;9.83;1.30;;;;;;;;;;6221758;22;20026;-47
2024/01/22 10:45:56;;;;;;;23.95;1.50;;;;;;;;;;6222261;22;20027;-44
2024/01/22 10:48:25;;;;;;;13.40;1.58;;;;;;;;;;6224304;22;20020;-43
2024/01/22 10:51:10;;;;;;;14.13;1.88;;;;;;;;;;6220880;22;20024;-44
2024/01/22 10:53:45;;;;;;;16.95;1.63;;;;;;;;;;6240102;22;20031;-43
2024/01/22 10:56:19;;;;;;;13.37;1.63;;;;;;;;;;6223563;22;20206;-42
2024/01/22 10:58:48;;;;;;;15.05;1.90;;;;;;;;;;6236312;22;20019;-42
2024/01/22 11:01:21;;;;;;;13.15;1.27;;;;;;;;;;6188094;22;20042;-42
2024/01/22 11:03:49;;;;;;;19.33;1.98;;;;;;;;;;6224457;22;20031;-43
2024/01/22 11:06:21;;;;;;;17.38;1.77;;;;;;;;;;6222325;22;20197;-43
2024/01/22 11:08:51;;;;;;;15.73;1.97;;;;;;;;;;6203667;22;20095;-42
2024/01/22 11:11:20;;;;;;;12.32;1.27;;;;;;;;;;6220064;22;20024;-42
2024/01/22 11:13:49;;;;;;;13.63;1.35;;;;;;;;;;6243570;22;20029;-43
2024/01/22 11:16:18;;;;;;;10.27;1.67;;;;;;;;;;6189028;22;20043;-44
2024/01/22 11:18:55;;;;;;;8.82;1.15;;;;;;;;;;6218414;22;20011;-44
2024/01/22 11:21:24;;;;;;;10.70;0.70;;;;;;;;;;6222412;22;20455;-41
2024/01/22 11:24:10;;;;;;;9.45;1.10;;;;;;;;;;6193856;22;20019;-47
2024/01/22 11:26:45;;;;;;;12.20;1.08;;;;;;;;;;6183675;22;20327;-43
2024/01/22 11:29:16;;;;;;;7.75;0.88;;;;;;;;;;6187894;22;20419;-43
2024/01/22 11:31:44;;;;;;;7.45;0.68;;;;;;;;;;6210334;22;20378;-43
2024/01/22 11:34:38;;;;;;;6.17;1.10;;;;;;;;;;6216443;22;20019;-43
2024/01/22 11:37:09;;;;;;;11.98;1.52;;;;;;;;;;6235454;22;20016;-44
2024/01/22 11:39:42;;;;;;;8.73;0.82;;;;;;;;;;6220840;22;20016;-44
2024/01/22 11:42:33;;;;;;;10.88;0.85;;;;;;;;;;6207607;22;20069;-43
2024/01/22 11:45:13;;;;;;;9.23;1.17;;;;;;;;;;6229163;22;20046;-44
2024/01/22 11:47:42;;;;;;;7.70;1.10;;;;;;;;;;6233395;22;20089;-44
2024/01/22 11:50:12;;;;;;;9.50;1.00;;;;;;;;;;6227259;22;20351;-44
2024/01/22 11:52:40;;;;;;;7.22;1.23;;;;;;;;;;6210289;22;20098;-43
2024/01/22 11:55:09;;;;;;;7.70;0.80;;;;;;;;;;6222208;22;20202;-43
2024/01/22 11:57:38;;;;;;;8.25;0.82;;;;;;;;;;6202321;22;20346;-43
2024/01/22 12:00:10;;;;;;;7.87;1.00;;;;;;;;;;6223984;22;20015;-45
2024/01/22 12:02:41;;;;;;;9.57;0.95;;;;;;;;;;6215019;22;20012;-46
2024/01/22 12:05:11;;;;;;;9.35;1.20;;;;;;;;;;6217936;22;20400;-44
2024/01/22 12:07:42;;;;;;;9.52;0.70;;;;;;;;;;6218428;22;20015;-44
2024/01/22 12:10:20;;;;;;;7.30;0.80;;;;;;;;;;6219318;22;20016;-46
2024/01/22 12:12:49;;;;;;;11.47;1.40;;;;;;;;;;6243996;22;20012;-44
2024/01/22 12:15:17;;;;;;;11.82;1.52;;;;;;;;;;6238155;22;20408;-43
2024/01/22 12:17:46;;;;;;;12.80;1.48;;;;;;;;;;6196589;22;20071;-43
2024/01/22 12:20:14;;;;;;;10.63;1.00;;;;;;;;;;6220135;22;20019;-43
2024/01/22 12:22:43;;;;;;;9.18;0.90;;;;;;;;;;6227736;22;20123;-44
2024/01/22 12:25:12;;;;;;;12.67;1.07;;;;;;;;;;6222357;22;20086;-42
2024/01/22 12:27:40;;;;;;;11.40;1.10;;;;;;;;;;6190322;22;20453;-44
2024/01/22 12:30:09;;;;;;;8.48;0.90;;;;;;;;;;6198501;22;20022;-43
2024/01/22 12:32:38;;;;;;;13.52;1.40;;;;;;;;;;6226133;22;20449;-43
2024/01/22 12:35:08;;;;;;;7.55;1.08;;;;;;;;;;6226321;22;20073;-43
2024/01/22 12:37:36;;;;;;;9.97;1.60;;;;;;;;;;6213949;22;20054;-42
2024/01/22 12:40:04;;;;;;;9.77;1.20;;;;;;;;;;6218549;22;20047;-43
2024/01/22 12:42:35;;;;;;;13.90;1.35;;;;;;;;;;6222595;22;20757;-43
2024/01/22 12:45:03;;;;;;;13.30;1.13;;;;;;;;;;6229782;22;20031;-43
2024/01/22 12:47:30;;;;;;;8.82;1.20;;;;;;;;;;6224314;22;20134;-43
2024/01/22 12:50:03;;;;;;;16.53;1.20;;;;;;;;;;6234995;22;20016;-43
2024/01/22 12:52:32;;;;;;;16.30;1.70;;;;;;;;;;6213244;22;20020;-43
2024/01/22 12:55:01;;;;;;;18.90;1.65;;;;;;;;;;6234436;22;20027;-44
2024/01/22 12:57:29;;;;;;;15.88;1.67;;;;;;;;;;6229057;22;20034;-43
2024/01/22 12:59:57;;;;;;;17.08;1.45;;;;;;;;;;6243998;22;20030;-43
2024/01/22 13:02:25;;;;;;;14.90;2.00;;;;;;;;;;6212526;22;20037;-43
2024/01/22 13:04:55;;;;;;;12.57;1.70;;;;;;;;;;6219146;22;20087;-44
2024/01/22 13:07:23;;;;;;;9.57;1.42;;;;;;;;;;6229945;22;20016;-43
2024/01/22 13:09:52;;;;;;;17.50;1.50;;;;;;;;;;6215292;22;20073;-42
2024/01/22 13:12:21;;;;;;;14.98;1.73;;;;;;;;;;6233714;22;20426;-42
2024/01/22 13:14:48;;;;;;;12.53;1.90;;;;;;;;;;6199275;22;20070;-44
2024/01/22 13:17:16;;;;;;;11.15;1.77;;;;;;;;;;6228004;22;20030;-42
2024/01/22 13:19:44;;;;;;;16.02;1.40;;;;;;;;;;6228631;22;20020;-42
2024/01/22 13:22:15;;;;;;;12.18;1.40;;;;;;;;;;6234357;22;20019;-42
2024/01/22 13:24:46;;;;;;;10.52;1.10;;;;;;;;;;6214707;22;20106;-43
2024/01/22 13:27:17;;;;;;;9.03;0.70;;;;;;;;;;6203074;22;20577;-42
2024/01/22 13:29:45;;;;;;;5.30;0.70;;;;;;;;;;6194700;22;20035;-44
2024/01/22 13:32:13;;;;;;;5.15;0.75;;;;;;;;;;6218133;22;20020;-42
2024/01/22 13:34:41;;;;;;;10.02;0.75;;;;;;;;;;6228245;22;20022;-43
2024/01/22 13:37:09;;;;;;;6.80;0.60;;;;;;;;;;6197347;22;20031;-42
2024/01/22 13:39:37;;;;;;;6.67;0.50;;;;;;;;;;6230288;22;20099;-43
2024/01/22 13:42:13;;;;;;;8.02;1.10;;;;;;;;;;6229254;22;20330;-43
2024/01/22 13:44:42;;;;;;;13.15;0.60;;;;;;;;;;6236630;22;20016;-42
2024/01/22 13:47:10;;;;;;;13.73;1.25;;;;;;;;;;6232993;22;20026;-44
2024/01/22 13:49:52;;;;;;;5.70;0.68;;;;;;;;;;6211034;22;20687;-42
2024/01/22 13:52:21;;;;;;;7.67;0.97;;;;;;;;;;6230170;22;20035;-42
2024/01/22 13:55:03;;;;;;;10.82;1.33;;;;;;;;;;6230478;22;20089;-42
2024/01/22 13:57:31;;;;;;;10.90;1.20;;;;;;;;;;6234577;22;20015;-42
2024/01/22 14:00:00;;;;;;;9.82;1.10;;;;;;;;;;6236192;22;20030;-42
2024/01/22 14:02:28;;;;;;;17.98;2.38;;;;;;;;;;6242524;22;20015;-42
2024/01/22 14:04:56;;;;;;;11.13;1.57;;;;;;;;;;6244606;22;20024;-41
2024/01/22 14:07:24;;;;;;;9.27;1.40;;;;;;;;;;6232898;22;20019;-42
2024/01/22 14:09:52;;;;;;;10.75;1.63;;;;;;;;;;6231938;22;20533;-42
2024/01/22 14:12:20;;;;;;;17.42;1.88;;;;;;;;;;6239818;22;20022;-43
2024/01/22 14:14:48;;;;;;;18.88;1.70;;;;;;;;;;6235002;22;20122;-44
2024/01/22 14:17:17;;;;;;;15.03;2.77;;;;;;;;;;6230241;22;20029;-43
2024/01/22 14:19:45;;;;;;;18.30;1.30;;;;;;;;;;6206717;22;20020;-43
2024/01/22 14:22:14;;;;;;;9.98;1.35;;;;;;;;;;6232174;22;20237;-41
2024/01/22 14:24:42;;;;;;;22.17;1.60;;;;;;;;;;6215338;22;20038;-42
2024/01/22 14:27:10;;;;;;;15.10;1.95;;;;;;;;;;6197367;22;20403;-43
2024/01/22 14:29:37;;;;;;;12.37;1.73;;;;;;;;;;6210438;22;20043;-43
2024/01/22 14:32:06;;;;;;;6.55;0.98;;;;;;;;;;6231569;22;20473;-42
2024/01/22 14:34:35;;;;;;;14.15;1.55;;;;;;;;;;6228641;22;20347;-42
2024/01/22 14:37:04;;;;;;;6.85;0.45;;;;;;;;;;6238335;22;20069;-41
2024/01/22 14:39:32;;;;;;;6.55;0.77;;;;;;;;;;6180317;22;20520;-42
2024/01/22 14:42:00;;;;;;;11.57;1.30;;;;;;;;;;6241096;22;20043;-42
2024/01/22 14:44:28;;;;;;;6.13;0.60;;;;;;;;;;6236967;22;20016;-42